sensor_id;sensor_type;location;lat;lon;timestamp;P1;durP1;ratioP1;P2;durP2;ratioP2
70953;SDS011;58618;47.490;8.736;2023-09-19T00:02:26;3.35;;;1.55;;
70953;SDS011;58618;47.490;8.736;2023-09-19T00:05:15;2.38;;;1.45;;
70953;SDS011;58618;47.490;8.736;2023-09-19T00:08:02;5.00;;;1.50;;
70953;SDS011;58618;47.490;8.736;2023-09-19T00:10:50;2.67;;;1.45;;
70953;SDS011;58618;47.490;8.736;2023-09-19T00:13:38;3.63;;;1.38;;
70953;SDS011;58618;47.490;8.736;2023-09-19T00:16:25;4.55;;;1.42;;
70953;SDS011;58618;47.490;8.736;2023-09-19T00:19:14;2.97;;;1.17;;
70953;SDS011;58618;47.490;8.736;2023-09-19T00:22:02;2.17;;;1.40;;
70953;SDS011;58618;47.490;8.736;2023-09-19T00:24:50;3.95;;;1.40;;
70953;SDS011;58618;47.490;8.736;2023-09-19T00:27:38;3.83;;;1.38;;
70953;SDS011;58618;47.490;8.736;2023-09-19T00:30:27;2.45;;;1.40;;
70953;SDS011;58618;47.490;8.736;2023-09-19T00:33:15;2.28;;;1.50;;
70953;SDS011;58618;47.490;8.736;2023-09-19T00:36:04;4.23;;;1.50;;
70953;SDS011;58618;47.490;8.736;2023-09-19T00:38:51;3.30;;;1.50;;
70953;SDS011;58618;47.490;8.736;2023-09-19T00:41:39;3.63;;;1.50;;
70953;SDS011;58618;47.490;8.736;2023-09-19T00:44:26;2.95;;;1.33;;
70953;SDS011;58618;47.490;8.736;2023-09-19T00:47:14;2.05;;;1.40;;
70953;SDS011;58618;47.490;8.736;2023-09-19T00:50:03;3.37;;;1.83;;
70953;SDS011;58618;47.490;8.736;2023-09-19T00:52:54;3.10;;;1.60;;
70953;SDS011;58618;47.490;8.736;2023-09-19T00:55:43;4.90;;;1.42;;
70953;SDS011;58618;47.490;8.736;2023-09-19T00:58:30;4.00;;;1.60;;
70953;SDS011;58618;47.490;8.736;2023-09-19T01:01:19;2.58;;;1.30;;
70953;SDS011;58618;47.490;8.736;2023-09-19T01:04:07;2.30;;;1.40;;
70953;SDS011;58618;47.490;8.736;2023-09-19T01:06:55;3.47;;;1.40;;
70953;SDS011;58618;47.490;8.736;2023-09-19T01:09:44;2.20;;;1.60;;
70953;SDS011;58618;47.490;8.736;2023-09-19T01:12:33;6.82;;;1.60;;
70953;SDS011;58618;47.490;8.736;2023-09-19T01:15:31;2.78;;;1.60;;
70953;SDS011;58618;47.490;8.736;2023-09-19T01:18:40;2.97;;;1.50;;
70953;SDS011;58618;47.490;8.736;2023-09-19T01:21:34;3.85;;;1.70;;
70953;SDS011;58618;47.490;8.736;2023-09-19T01:24:34;3.28;;;1.52;;
70953;SDS011;58618;47.490;8.736;2023-09-19T01:28:06;2.50;;;1.70;;
70953;SDS011;58618;47.490;8.736;2023-09-19T01:31:02;3.35;;;1.65;;
70953;SDS011;58618;47.490;8.736;2023-09-19T01:33:53;3.03;;;1.57;;
70953;SDS011;58618;47.490;8.736;2023-09-19T01:36:43;2.20;;;1.50;;
70953;SDS011;58618;47.490;8.736;2023-09-19T01:39:31;2.65;;;1.60;;
70953;SDS011;58618;47.490;8.736;2023-09-19T01:42:21;3.13;;;1.58;;
70953;SDS011;58618;47.490;8.736;2023-09-19T01:45:18;2.83;;;1.73;;
70953;SDS011;58618;47.490;8.736;2023-09-19T01:48:16;4.67;;;1.70;;
70953;SDS011;58618;47.490;8.736;2023-09-19T01:51:18;2.50;;;1.48;;
70953;SDS011;58618;47.490;8.736;2023-09-19T01:54:16;2.53;;;1.60;;
70953;SDS011;58618;47.490;8.736;2023-09-19T01:57:16;5.72;;;1.98;;
70953;SDS011;58618;47.490;8.736;2023-09-19T02:00:10;4.55;;;2.00;;
70953;SDS011;58618;47.490;8.736;2023-09-19T02:02:59;4.17;;;1.57;;
70953;SDS011;58618;47.490;8.736;2023-09-19T02:05:49;3.42;;;1.70;;
70953;SDS011;58618;47.490;8.736;2023-09-19T02:08:37;2.55;;;1.83;;
70953;SDS011;58618;47.490;8.736;2023-09-19T02:11:25;4.00;;;2.00;;
70953;SDS011;58618;47.490;8.736;2023-09-19T02:14:12;2.60;;;1.73;;
70953;SDS011;58618;47.490;8.736;2023-09-19T02:17:00;3.10;;;1.60;;
70953;SDS011;58618;47.490;8.736;2023-09-19T02:19:48;2.53;;;1.73;;
70953;SDS011;58618;47.490;8.736;2023-09-19T02:22:37;2.53;;;1.63;;
70953;SDS011;58618;47.490;8.736;2023-09-19T02:25:25;4.82;;;1.80;;
70953;SDS011;58618;47.490;8.736;2023-09-19T02:28:12;2.55;;;1.80;;
70953;SDS011;58618;47.490;8.736;2023-09-19T02:30:59;3.57;;;1.60;;
70953;SDS011;58618;47.490;8.736;2023-09-19T02:33:47;3.13;;;1.58;;
70953;SDS011;58618;47.490;8.736;2023-09-19T02:36:34;5.22;;;2.00;;
70953;SDS011;58618;47.490;8.736;2023-09-19T02:39:23;3.65;;;1.77;;
70953;SDS011;58618;47.490;8.736;2023-09-19T02:42:11;5.45;;;1.90;;
70953;SDS011;58618;47.490;8.736;2023-09-19T02:44:58;3.70;;;1.70;;
70953;SDS011;58618;47.490;8.736;2023-09-19T02:47:46;3.92;;;1.50;;
70953;SDS011;58618;47.490;8.736;2023-09-19T02:50:34;2.70;;;1.77;;
70953;SDS011;58618;47.490;8.736;2023-09-19T02:53:21;3.60;;;1.60;;
70953;SDS011;58618;47.490;8.736;2023-09-19T02:56:11;3.85;;;1.75;;
70953;SDS011;58618;47.490;8.736;2023-09-19T02:58:59;4.07;;;1.37;;
70953;SDS011;58618;47.490;8.736;2023-09-19T03:01:47;3.05;;;1.63;;
70953;SDS011;58618;47.490;8.736;2023-09-19T03:04:35;3.90;;;1.60;;
70953;SDS011;58618;47.490;8.736;2023-09-19T03:07:23;4.85;;;1.40;;
70953;SDS011;58618;47.490;8.736;2023-09-19T03:10:11;2.67;;;1.50;;
70953;SDS011;58618;47.490;8.736;2023-09-19T03:12:59;3.20;;;1.53;;
70953;SDS011;58618;47.490;8.736;2023-09-19T03:15:47;2.63;;;1.50;;
70953;SDS011;58618;47.490;8.736;2023-09-19T03:18:36;2.60;;;1.90;;
70953;SDS011;58618;47.490;8.736;2023-09-19T03:21:23;4.25;;;1.80;;
70953;SDS011;58618;47.490;8.736;2023-09-19T03:24:11;2.78;;;1.75;;
70953;SDS011;58618;47.490;8.736;2023-09-19T03:26:58;3.77;;;1.60;;
70953;SDS011;58618;47.490;8.736;2023-09-19T03:29:47;2.50;;;1.65;;
70953;SDS011;58618;47.490;8.736;2023-09-19T03:32:35;3.72;;;1.85;;
70953;SDS011;58618;47.490;8.736;2023-09-19T03:35:22;3.63;;;1.63;;
70953;SDS011;58618;47.490;8.736;2023-09-19T03:38:10;3.78;;;1.73;;
70953;SDS011;58618;47.490;8.736;2023-09-19T03:40:57;2.10;;;1.37;;
70953;SDS011;58618;47.490;8.736;2023-09-19T03:43:44;2.13;;;1.35;;
70953;SDS011;58618;47.490;8.736;2023-09-19T03:46:33;3.28;;;1.42;;
70953;SDS011;58618;47.490;8.736;2023-09-19T03:49:22;3.05;;;1.25;;
70953;SDS011;58618;47.490;8.736;2023-09-19T03:52:09;5.43;;;1.65;;
70953;SDS011;58618;47.490;8.736;2023-09-19T03:54:57;3.40;;;1.40;;
70953;SDS011;58618;47.490;8.736;2023-09-19T03:57:47;3.20;;;1.33;;
70953;SDS011;58618;47.490;8.736;2023-09-19T04:00:35;5.82;;;1.83;;
70953;SDS011;58618;47.490;8.736;2023-09-19T04:03:23;2.78;;;1.42;;
70953;SDS011;58618;47.490;8.736;2023-09-19T04:06:20;1.30;;;0.90;;
70953;SDS011;58618;47.490;8.736;2023-09-19T04:09:07;2.67;;;1.10;;
70953;SDS011;58618;47.490;8.736;2023-09-19T04:11:55;2.78;;;1.30;;
70953;SDS011;58618;47.490;8.736;2023-09-19T04:14:42;4.03;;;1.50;;
70953;SDS011;58618;47.490;8.736;2023-09-19T04:17:30;4.32;;;1.50;;
70953;SDS011;58618;47.490;8.736;2023-09-19T04:20:20;2.97;;;1.40;;
70953;SDS011;58618;47.490;8.736;2023-09-19T04:23:08;5.53;;;1.43;;
70953;SDS011;58618;47.490;8.736;2023-09-19T04:25:56;2.58;;;1.42;;
70953;SDS011;58618;47.490;8.736;2023-09-19T04:28:43;2.80;;;1.48;;
70953;SDS011;58618;47.490;8.736;2023-09-19T04:31:31;3.00;;;1.33;;
70953;SDS011;58618;47.490;8.736;2023-09-19T04:34:19;1.88;;;1.20;;
70953;SDS011;58618;47.490;8.736;2023-09-19T04:37:07;2.67;;;1.27;;
70953;SDS011;58618;47.490;8.736;2023-09-19T04:39:54;3.10;;;1.20;;
70953;SDS011;58618;47.490;8.736;2023-09-19T04:42:42;3.03;;;1.25;;
70953;SDS011;58618;47.490;8.736;2023-09-19T04:45:29;2.53;;;1.10;;
70953;SDS011;58618;47.490;8.736;2023-09-19T04:48:17;2.10;;;1.20;;
70953;SDS011;58618;47.490;8.736;2023-09-19T04:51:05;4.07;;;1.20;;
70953;SDS011;58618;47.490;8.736;2023-09-19T04:53:54;6.05;;;1.27;;
70953;SDS011;58618;47.490;8.736;2023-09-19T04:56:41;7.38;;;2.03;;
70953;SDS011;58618;47.490;8.736;2023-09-19T04:59:28;2.38;;;1.33;;
70953;SDS011;58618;47.490;8.736;2023-09-19T05:02:17;2.97;;;1.30;;
70953;SDS011;58618;47.490;8.736;2023-09-19T05:05:04;3.93;;;1.30;;
70953;SDS011;58618;47.490;8.736;2023-09-19T05:07:53;2.05;;;1.10;;
70953;SDS011;58618;47.490;8.736;2023-09-19T05:10:42;3.90;;;1.50;;
70953;SDS011;58618;47.490;8.736;2023-09-19T05:13:30;3.85;;;1.20;;
70953;SDS011;58618;47.490;8.736;2023-09-19T05:16:18;2.50;;;1.08;;
70953;SDS011;58618;47.490;8.736;2023-09-19T05:19:05;4.03;;;0.90;;
70953;SDS011;58618;47.490;8.736;2023-09-19T05:21:52;3.70;;;1.40;;
70953;SDS011;58618;47.490;8.736;2023-09-19T05:24:40;3.38;;;1.20;;
70953;SDS011;58618;47.490;8.736;2023-09-19T05:27:30;2.47;;;1.10;;
70953;SDS011;58618;47.490;8.736;2023-09-19T05:30:17;3.17;;;0.93;;
70953;SDS011;58618;47.490;8.736;2023-09-19T05:33:06;2.90;;;1.10;;
70953;SDS011;58618;47.490;8.736;2023-09-19T05:35:54;2.53;;;1.20;;
70953;SDS011;58618;47.490;8.736;2023-09-19T05:38:42;1.52;;;1.00;;
70953;SDS011;58618;47.490;8.736;2023-09-19T05:41:30;2.47;;;1.10;;
70953;SDS011;58618;47.490;8.736;2023-09-19T05:44:18;2.13;;;1.33;;
70953;SDS011;58618;47.490;8.736;2023-09-19T05:47:06;1.67;;;1.13;;
70953;SDS011;58618;47.490;8.736;2023-09-19T05:49:54;1.83;;;1.05;;
70953;SDS011;58618;47.490;8.736;2023-09-19T05:52:42;1.75;;;1.10;;
70953;SDS011;58618;47.490;8.736;2023-09-19T05:55:30;1.48;;;0.95;;
70953;SDS011;58618;47.490;8.736;2023-09-19T05:58:17;2.67;;;1.30;;
70953;SDS011;58618;47.490;8.736;2023-09-19T06:01:07;4.10;;;0.90;;
70953;SDS011;58618;47.490;8.736;2023-09-19T06:03:55;2.80;;;1.00;;
70953;SDS011;58618;47.490;8.736;2023-09-19T06:06:42;2.63;;;0.98;;
70953;SDS011;58618;47.490;8.736;2023-09-19T06:09:30;3.38;;;1.00;;
70953;SDS011;58618;47.490;8.736;2023-09-19T06:12:17;1.75;;;1.08;;
70953;SDS011;58618;47.490;8.736;2023-09-19T06:15:05;4.47;;;1.00;;
70953;SDS011;58618;47.490;8.736;2023-09-19T06:17:56;1.42;;;0.93;;
70953;SDS011;58618;47.490;8.736;2023-09-19T06:20:43;4.10;;;0.90;;
70953;SDS011;58618;47.490;8.736;2023-09-19T06:23:31;1.55;;;0.93;;
70953;SDS011;58618;47.490;8.736;2023-09-19T06:26:18;2.80;;;0.93;;
70953;SDS011;58618;47.490;8.736;2023-09-19T06:29:05;1.83;;;0.87;;
70953;SDS011;58618;47.490;8.736;2023-09-19T06:31:53;3.30;;;1.15;;
70953;SDS011;58618;47.490;8.736;2023-09-19T06:34:42;1.58;;;1.00;;
70953;SDS011;58618;47.490;8.736;2023-09-19T06:37:29;3.40;;;0.98;;
70953;SDS011;58618;47.490;8.736;2023-09-19T06:40:17;3.03;;;1.27;;
70953;SDS011;58618;47.490;8.736;2023-09-19T06:43:05;1.33;;;0.90;;
70953;SDS011;58618;47.490;8.736;2023-09-19T06:45:53;1.58;;;0.70;;
70953;SDS011;58618;47.490;8.736;2023-09-19T06:48:41;2.10;;;0.75;;
70953;SDS011;58618;47.490;8.736;2023-09-19T06:51:31;1.92;;;0.80;;
70953;SDS011;58618;47.490;8.736;2023-09-19T06:54:18;1.33;;;1.08;;
70953;SDS011;58618;47.490;8.736;2023-09-19T06:57:06;2.57;;;0.93;;
70953;SDS011;58618;47.490;8.736;2023-09-19T06:59:55;1.40;;;0.75;;
70953;SDS011;58618;47.490;8.736;2023-09-19T07:02:42;1.70;;;0.88;;
70953;SDS011;58618;47.490;8.736;2023-09-19T07:05:30;1.08;;;0.70;;
70953;SDS011;58618;47.490;8.736;2023-09-19T07:08:19;1.63;;;0.80;;
70953;SDS011;58618;47.490;8.736;2023-09-19T07:11:06;1.07;;;0.80;;
70953;SDS011;58618;47.490;8.736;2023-09-19T07:13:54;2.55;;;0.90;;
70953;SDS011;58618;47.490;8.736;2023-09-19T07:16:41;2.70;;;0.80;;
70953;SDS011;58618;47.490;8.736;2023-09-19T07:19:30;1.92;;;0.82;;
70953;SDS011;58618;47.490;8.736;2023-09-19T07:22:18;1.85;;;0.80;;
70953;SDS011;58618;47.490;8.736;2023-09-19T07:25:07;4.60;;;0.97;;
70953;SDS011;58618;47.490;8.736;2023-09-19T07:27:54;1.10;;;0.73;;
70953;SDS011;58618;47.490;8.736;2023-09-19T07:30:42;1.58;;;0.82;;
70953;SDS011;58618;47.490;8.736;2023-09-19T07:33:29;1.88;;;0.90;;
70953;SDS011;58618;47.490;8.736;2023-09-19T07:36:17;1.23;;;0.70;;
70953;SDS011;58618;47.490;8.736;2023-09-19T07:39:04;1.10;;;0.80;;
70953;SDS011;58618;47.490;8.736;2023-09-19T07:41:54;2.00;;;0.90;;
70953;SDS011;58618;47.490;8.736;2023-09-19T07:44:41;1.33;;;0.90;;
70953;SDS011;58618;47.490;8.736;2023-09-19T07:47:28;2.15;;;0.90;;
70953;SDS011;58618;47.490;8.736;2023-09-19T07:50:18;1.70;;;0.90;;
70953;SDS011;58618;47.490;8.736;2023-09-19T07:53:06;2.30;;;1.03;;
70953;SDS011;58618;47.490;8.736;2023-09-19T07:56:01;2.05;;;0.95;;
70953;SDS011;58618;47.490;8.736;2023-09-19T07:58:51;1.67;;;0.95;;
70953;SDS011;58618;47.490;8.736;2023-09-19T08:01:39;1.50;;;0.90;;
70953;SDS011;58618;47.490;8.736;2023-09-19T08:04:26;5.18;;;1.10;;
70953;SDS011;58618;47.490;8.736;2023-09-19T08:07:16;2.03;;;0.90;;
70953;SDS011;58618;47.490;8.736;2023-09-19T08:10:04;1.48;;;0.90;;
70953;SDS011;58618;47.490;8.736;2023-09-19T08:12:53;1.88;;;1.10;;
70953;SDS011;58618;47.490;8.736;2023-09-19T08:15:45;2.83;;;1.10;;
70953;SDS011;58618;47.490;8.736;2023-09-19T08:18:32;1.50;;;0.95;;
70953;SDS011;58618;47.490;8.736;2023-09-19T08:21:19;1.50;;;0.77;;
70953;SDS011;58618;47.490;8.736;2023-09-19T08:24:07;3.88;;;1.05;;
70953;SDS011;58618;47.490;8.736;2023-09-19T08:26:55;2.00;;;1.00;;
70953;SDS011;58618;47.490;8.736;2023-09-19T08:29:42;2.58;;;0.90;;
70953;SDS011;58618;47.490;8.736;2023-09-19T08:32:31;1.75;;;0.90;;
70953;SDS011;58618;47.490;8.736;2023-09-19T08:35:19;3.33;;;1.17;;
70953;SDS011;58618;47.490;8.736;2023-09-19T08:38:06;1.40;;;1.10;;
70953;SDS011;58618;47.490;8.736;2023-09-19T08:40:54;2.60;;;1.10;;
70953;SDS011;58618;47.490;8.736;2023-09-19T08:43:41;1.95;;;1.20;;
70953;SDS011;58618;47.490;8.736;2023-09-19T08:46:29;1.75;;;0.90;;
70953;SDS011;58618;47.490;8.736;2023-09-19T08:49:19;1.20;;;0.90;;
70953;SDS011;58618;47.490;8.736;2023-09-19T08:52:22;3.63;;;1.05;;
70953;SDS011;58618;47.490;8.736;2023-09-19T08:55:12;1.90;;;1.00;;
70953;SDS011;58618;47.490;8.736;2023-09-19T08:58:06;2.97;;;1.10;;
70953;SDS011;58618;47.490;8.736;2023-09-19T09:00:59;1.30;;;1.00;;
70953;SDS011;58618;47.490;8.736;2023-09-19T09:03:48;3.40;;;1.20;;
70953;SDS011;58618;47.490;8.736;2023-09-19T09:06:37;1.95;;;0.90;;
70953;SDS011;58618;47.490;8.736;2023-09-19T09:09:26;2.50;;;1.20;;
70953;SDS011;58618;47.490;8.736;2023-09-19T09:12:16;1.98;;;1.05;;
70953;SDS011;58618;47.490;8.736;2023-09-19T09:15:04;3.53;;;1.10;;
70953;SDS011;58618;47.490;8.736;2023-09-19T09:17:53;2.70;;;1.17;;
70953;SDS011;58618;47.490;8.736;2023-09-19T09:20:40;2.22;;;0.82;;
70953;SDS011;58618;47.490;8.736;2023-09-19T09:23:31;1.60;;;1.10;;
70953;SDS011;58618;47.490;8.736;2023-09-19T09:26:22;2.05;;;1.10;;
70953;SDS011;58618;47.490;8.736;2023-09-19T09:29:41;2.78;;;1.20;;
70953;SDS011;58618;47.490;8.736;2023-09-19T09:32:30;2.40;;;1.10;;
70953;SDS011;58618;47.490;8.736;2023-09-19T09:35:20;2.58;;;1.23;;
70953;SDS011;58618;47.490;8.736;2023-09-19T09:38:07;5.53;;;1.30;;
70953;SDS011;58618;47.490;8.736;2023-09-19T09:40:57;2.63;;;1.48;;
70953;SDS011;58618;47.490;8.736;2023-09-19T09:43:52;2.13;;;1.13;;
70953;SDS011;58618;47.490;8.736;2023-09-19T09:46:42;1.70;;;0.90;;
70953;SDS011;58618;47.490;8.736;2023-09-19T09:49:47;2.20;;;1.30;;
70953;SDS011;58618;47.490;8.736;2023-09-19T09:52:46;2.97;;;1.50;;
70953;SDS011;58618;47.490;8.736;2023-09-19T09:58:49;1.95;;;1.25;;
70953;SDS011;58618;47.490;8.736;2023-09-19T10:01:46;2.43;;;1.20;;
70953;SDS011;58618;47.490;8.736;2023-09-19T10:04:34;3.15;;;1.10;;
70953;SDS011;58618;47.490;8.736;2023-09-19T10:07:31;2.55;;;1.38;;
70953;SDS011;58618;47.490;8.736;2023-09-19T10:10:30;4.32;;;1.10;;
70953;SDS011;58618;47.490;8.736;2023-09-19T10:13:40;2.90;;;1.20;;
70953;SDS011;58618;47.490;8.736;2023-09-19T10:16:29;3.00;;;1.20;;
70953;SDS011;58618;47.490;8.736;2023-09-19T10:19:20;1.98;;;1.05;;
70953;SDS011;58618;47.490;8.736;2023-09-19T10:22:16;4.30;;;1.10;;
70953;SDS011;58618;47.490;8.736;2023-09-19T10:25:06;1.92;;;1.08;;
70953;SDS011;58618;47.490;8.736;2023-09-19T10:27:55;2.60;;;1.20;;
70953;SDS011;58618;47.490;8.736;2023-09-19T10:30:47;2.43;;;1.10;;
70953;SDS011;58618;47.490;8.736;2023-09-19T10:33:37;2.83;;;1.42;;
70953;SDS011;58618;47.490;8.736;2023-09-19T10:36:27;3.05;;;1.23;;
70953;SDS011;58618;47.490;8.736;2023-09-19T10:39:21;3.35;;;1.40;;
70953;SDS011;58618;47.490;8.736;2023-09-19T10:42:09;2.50;;;1.20;;
70953;SDS011;58618;47.490;8.736;2023-09-19T10:45:03;2.10;;;1.50;;
70953;SDS011;58618;47.490;8.736;2023-09-19T10:48:00;3.67;;;1.20;;
70953;SDS011;58618;47.490;8.736;2023-09-19T10:50:50;3.78;;;1.33;;
70953;SDS011;58618;47.490;8.736;2023-09-19T10:53:41;1.92;;;1.38;;
70953;SDS011;58618;47.490;8.736;2023-09-19T10:56:34;1.70;;;1.20;;
70953;SDS011;58618;47.490;8.736;2023-09-19T10:59:24;2.37;;;1.30;;
70953;SDS011;58618;47.490;8.736;2023-09-19T11:02:20;3.42;;;1.40;;
70953;SDS011;58618;47.490;8.736;2023-09-19T11:05:14;2.65;;;1.40;;
70953;SDS011;58618;47.490;8.736;2023-09-19T11:08:01;3.25;;;1.40;;
70953;SDS011;58618;47.490;8.736;2023-09-19T11:10:51;3.63;;;1.25;;
70953;SDS011;58618;47.490;8.736;2023-09-19T11:13:38;2.27;;;1.20;;
70953;SDS011;58618;47.490;8.736;2023-09-19T11:16:27;2.50;;;1.15;;
70953;SDS011;58618;47.490;8.736;2023-09-19T11:19:14;1.70;;;1.20;;
70953;SDS011;58618;47.490;8.736;2023-09-19T11:22:04;2.63;;;1.40;;
70953;SDS011;58618;47.490;8.736;2023-09-19T11:24:56;3.22;;;1.30;;
70953;SDS011;58618;47.490;8.736;2023-09-19T11:34:45;1.60;;;1.20;;
70953;SDS011;58618;47.490;8.736;2023-09-19T11:44:34;3.27;;;1.23;;
70953;SDS011;58618;47.490;8.736;2023-09-19T11:47:26;2.30;;;1.10;;
70953;SDS011;58618;47.490;8.736;2023-09-19T11:50:17;3.30;;;1.33;;
70953;SDS011;58618;47.490;8.736;2023-09-19T11:53:07;2.95;;;1.20;;
70953;SDS011;58618;47.490;8.736;2023-09-19T11:55:56;3.33;;;1.30;;
70953;SDS011;58618;47.490;8.736;2023-09-19T11:58:46;2.80;;;1.40;;
70953;SDS011;58618;47.490;8.736;2023-09-19T12:01:42;2.08;;;1.13;;
70953;SDS011;58618;47.490;8.736;2023-09-19T12:04:40;3.38;;;1.40;;
70953;SDS011;58618;47.490;8.736;2023-09-19T12:07:31;2.25;;;1.10;;
70953;SDS011;58618;47.490;8.736;2023-09-19T12:10:30;1.40;;;1.20;;
70953;SDS011;58618;47.490;8.736;2023-09-19T12:13:18;2.03;;;1.40;;
70953;SDS011;58618;47.490;8.736;2023-09-19T12:16:10;4.07;;;1.10;;
70953;SDS011;58618;47.490;8.736;2023-09-19T12:22:07;2.95;;;1.25;;
70953;SDS011;58618;47.490;8.736;2023-09-19T12:25:02;2.15;;;1.30;;
70953;SDS011;58618;47.490;8.736;2023-09-19T12:27:54;2.60;;;1.20;;
70953;SDS011;58618;47.490;8.736;2023-09-19T12:30:43;1.70;;;1.15;;
70953;SDS011;58618;47.490;8.736;2023-09-19T12:33:31;2.10;;;1.23;;
70953;SDS011;58618;47.490;8.736;2023-09-19T12:36:21;2.65;;;1.15;;
70953;SDS011;58618;47.490;8.736;2023-09-19T12:39:23;1.95;;;1.20;;
70953;SDS011;58618;47.490;8.736;2023-09-19T12:42:11;1.63;;;1.10;;
70953;SDS011;58618;47.490;8.736;2023-09-19T12:45:02;1.83;;;1.10;;
70953;SDS011;58618;47.490;8.736;2023-09-19T12:51:06;1.88;;;1.10;;
70953;SDS011;58618;47.490;8.736;2023-09-19T12:53:57;2.63;;;1.30;;
70953;SDS011;58618;47.490;8.736;2023-09-19T12:56:45;2.53;;;1.20;;
70953;SDS011;58618;47.490;8.736;2023-09-19T12:59:34;1.73;;;1.08;;
70953;SDS011;58618;47.490;8.736;2023-09-19T13:02:25;5.00;;;1.13;;
70953;SDS011;58618;47.490;8.736;2023-09-19T13:05:14;2.53;;;1.40;;
70953;SDS011;58618;47.490;8.736;2023-09-19T13:08:16;3.35;;;1.33;;
70953;SDS011;58618;47.490;8.736;2023-09-19T13:11:06;1.53;;;1.17;;
70953;SDS011;58618;47.490;8.736;2023-09-19T13:17:03;2.30;;;1.20;;
70953;SDS011;58618;47.490;8.736;2023-09-19T13:19:53;2.33;;;1.20;;
70953;SDS011;58618;47.490;8.736;2023-09-19T13:22:43;2.35;;;1.23;;
70953;SDS011;58618;47.490;8.736;2023-09-19T13:25:35;1.70;;;1.10;;
70953;SDS011;58618;47.490;8.736;2023-09-19T13:28:26;1.58;;;1.00;;
70953;SDS011;58618;47.490;8.736;2023-09-19T13:31:14;3.03;;;1.20;;
70953;SDS011;58618;47.490;8.736;2023-09-19T13:34:02;2.95;;;1.08;;
70953;SDS011;58618;47.490;8.736;2023-09-19T13:36:50;1.92;;;1.20;;
70953;SDS011;58618;47.490;8.736;2023-09-19T13:39:38;2.07;;;1.20;;
70953;SDS011;58618;47.490;8.736;2023-09-19T13:42:28;2.15;;;1.27;;
70953;SDS011;58618;47.490;8.736;2023-09-19T13:45:16;1.73;;;1.30;;
70953;SDS011;58618;47.490;8.736;2023-09-19T13:48:08;2.45;;;1.10;;
70953;SDS011;58618;47.490;8.736;2023-09-19T13:50:57;1.50;;;1.10;;
70953;SDS011;58618;47.490;8.736;2023-09-19T13:53:45;2.90;;;1.20;;
70953;SDS011;58618;47.490;8.736;2023-09-19T13:56:33;5.45;;;1.25;;
70953;SDS011;58618;47.490;8.736;2023-09-19T13:59:22;3.15;;;1.20;;
70953;SDS011;58618;47.490;8.736;2023-09-19T14:02:10;2.90;;;1.30;;
70953;SDS011;58618;47.490;8.736;2023-09-19T14:05:00;2.70;;;1.17;;
70953;SDS011;58618;47.490;8.736;2023-09-19T14:07:47;2.53;;;1.30;;
70953;SDS011;58618;47.490;8.736;2023-09-19T14:10:36;2.63;;;1.38;;
70953;SDS011;58618;47.490;8.736;2023-09-19T14:13:23;1.85;;;1.27;;
70953;SDS011;58618;47.490;8.736;2023-09-19T14:16:11;1.50;;;1.10;;
70953;SDS011;58618;47.490;8.736;2023-09-19T14:18:58;2.10;;;1.42;;
70953;SDS011;58618;47.490;8.736;2023-09-19T14:21:46;2.67;;;1.50;;
70953;SDS011;58618;47.490;8.736;2023-09-19T14:24:33;1.50;;;1.15;;
70953;SDS011;58618;47.490;8.736;2023-09-19T14:27:22;1.75;;;0.90;;
70953;SDS011;58618;47.490;8.736;2023-09-19T14:30:11;1.50;;;1.17;;
70953;SDS011;58618;47.490;8.736;2023-09-19T14:32:59;2.88;;;1.10;;
70953;SDS011;58618;47.490;8.736;2023-09-19T14:35:46;1.90;;;1.03;;
70953;SDS011;58618;47.490;8.736;2023-09-19T14:38:34;2.63;;;1.13;;
70953;SDS011;58618;47.490;8.736;2023-09-19T14:41:22;1.77;;;1.30;;
70953;SDS011;58618;47.490;8.736;2023-09-19T14:44:12;1.92;;;1.02;;
70953;SDS011;58618;47.490;8.736;2023-09-19T14:47:01;1.80;;;1.10;;
70953;SDS011;58618;47.490;8.736;2023-09-19T14:49:50;2.50;;;1.00;;
70953;SDS011;58618;47.490;8.736;2023-09-19T14:52:38;1.73;;;1.00;;
70953;SDS011;58618;47.490;8.736;2023-09-19T14:55:25;2.03;;;1.10;;
70953;SDS011;58618;47.490;8.736;2023-09-19T14:58:15;1.55;;;1.30;;
70953;SDS011;58618;47.490;8.736;2023-09-19T15:01:04;2.50;;;1.00;;
70953;SDS011;58618;47.490;8.736;2023-09-19T15:03:52;1.73;;;1.17;;
70953;SDS011;58618;47.490;8.736;2023-09-19T15:06:41;1.73;;;1.10;;
70953;SDS011;58618;47.490;8.736;2023-09-19T15:09:28;1.90;;;1.10;;
70953;SDS011;58618;47.490;8.736;2023-09-19T15:12:18;1.88;;;1.20;;
70953;SDS011;58618;47.490;8.736;2023-09-19T15:15:05;1.80;;;1.17;;
70953;SDS011;58618;47.490;8.736;2023-09-19T15:17:55;2.47;;;1.33;;
70953;SDS011;58618;47.490;8.736;2023-09-19T15:20:43;2.17;;;1.02;;
70953;SDS011;58618;47.490;8.736;2023-09-19T15:23:30;2.20;;;1.30;;
70953;SDS011;58618;47.490;8.736;2023-09-19T15:26:19;2.00;;;1.23;;
70953;SDS011;58618;47.490;8.736;2023-09-19T15:29:07;3.55;;;1.25;;
70953;SDS011;58618;47.490;8.736;2023-09-19T15:31:55;1.93;;;1.10;;
70953;SDS011;58618;47.490;8.736;2023-09-19T15:34:46;2.15;;;1.25;;
70953;SDS011;58618;47.490;8.736;2023-09-19T15:37:34;2.00;;;1.20;;
70953;SDS011;58618;47.490;8.736;2023-09-19T15:40:21;1.70;;;1.20;;
70953;SDS011;58618;47.490;8.736;2023-09-19T15:43:09;2.13;;;1.23;;
70953;SDS011;58618;47.490;8.736;2023-09-19T15:45:56;3.10;;;1.30;;
70953;SDS011;58618;47.490;8.736;2023-09-19T15:48:47;3.53;;;1.05;;
70953;SDS011;58618;47.490;8.736;2023-09-19T15:51:38;2.33;;;1.70;;
70953;SDS011;58618;47.490;8.736;2023-09-19T15:54:26;3.78;;;1.48;;
70953;SDS011;58618;47.490;8.736;2023-09-19T15:57:13;3.92;;;1.23;;
70953;SDS011;58618;47.490;8.736;2023-09-19T16:00:01;2.23;;;1.30;;
70953;SDS011;58618;47.490;8.736;2023-09-19T16:02:50;3.78;;;1.20;;
70953;SDS011;58618;47.490;8.736;2023-09-19T16:05:37;3.47;;;1.27;;
70953;SDS011;58618;47.490;8.736;2023-09-19T16:08:26;1.83;;;1.33;;
70953;SDS011;58618;47.490;8.736;2023-09-19T16:11:14;2.38;;;1.30;;
70953;SDS011;58618;47.490;8.736;2023-09-19T16:14:02;1.77;;;1.20;;
70953;SDS011;58618;47.490;8.736;2023-09-19T16:16:51;4.38;;;1.80;;
70953;SDS011;58618;47.490;8.736;2023-09-19T16:19:39;3.42;;;1.60;;
70953;SDS011;58618;47.490;8.736;2023-09-19T16:22:26;4.10;;;1.70;;
70953;SDS011;58618;47.490;8.736;2023-09-19T16:25:15;3.22;;;1.50;;
70953;SDS011;58618;47.490;8.736;2023-09-19T16:28:02;2.50;;;1.40;;
70953;SDS011;58618;47.490;8.736;2023-09-19T16:30:51;1.83;;;1.42;;
70953;SDS011;58618;47.490;8.736;2023-09-19T16:33:39;2.70;;;1.45;;
70953;SDS011;58618;47.490;8.736;2023-09-19T16:36:28;2.15;;;1.20;;
70953;SDS011;58618;47.490;8.736;2023-09-19T16:39:17;2.00;;;1.40;;
70953;SDS011;58618;47.490;8.736;2023-09-19T16:42:05;2.70;;;1.50;;
70953;SDS011;58618;47.490;8.736;2023-09-19T16:44:53;2.25;;;1.40;;
70953;SDS011;58618;47.490;8.736;2023-09-19T16:47:41;2.05;;;1.48;;
70953;SDS011;58618;47.490;8.736;2023-09-19T16:50:28;2.95;;;1.35;;
70953;SDS011;58618;47.490;8.736;2023-09-19T16:53:19;2.40;;;1.40;;
70953;SDS011;58618;47.490;8.736;2023-09-19T16:56:09;2.90;;;1.50;;
70953;SDS011;58618;47.490;8.736;2023-09-19T16:59:01;2.17;;;1.40;;
70953;SDS011;58618;47.490;8.736;2023-09-19T17:01:50;3.30;;;1.50;;
70953;SDS011;58618;47.490;8.736;2023-09-19T17:04:37;3.40;;;1.52;;
70953;SDS011;58618;47.490;8.736;2023-09-19T17:07:24;3.25;;;1.50;;
70953;SDS011;58618;47.490;8.736;2023-09-19T17:10:12;3.50;;;1.30;;
70953;SDS011;58618;47.490;8.736;2023-09-19T17:12:59;5.38;;;1.30;;
70953;SDS011;58618;47.490;8.736;2023-09-19T17:15:48;2.60;;;1.30;;
70953;SDS011;58618;47.490;8.736;2023-09-19T17:18:49;3.72;;;1.30;;
70953;SDS011;58618;47.490;8.736;2023-09-19T17:21:37;2.63;;;1.50;;
70953;SDS011;58618;47.490;8.736;2023-09-19T17:24:24;3.57;;;1.37;;
70953;SDS011;58618;47.490;8.736;2023-09-19T17:27:12;3.85;;;1.38;;
70953;SDS011;58618;47.490;8.736;2023-09-19T17:29:59;2.15;;;1.60;;